createdAt,value
2022-08-17T00:04:18.854Z,1007.72
2022-08-17T00:14:18.923Z,1007.61
2022-08-17T00:24:19.611Z,1007.58
2022-08-17T00:34:19.257Z,1007.38
2022-08-17T00:44:19.640Z,1007.13
2022-08-17T00:54:19.679Z,1006.97
2022-08-17T01:04:20.016Z,1006.88
2022-08-17T01:14:20.061Z,1006.81
2022-08-17T01:24:20.340Z,1006.95
2022-08-17T01:34:20.426Z,1006.76
2022-08-17T01:44:20.691Z,1007.04
2022-08-17T01:54:20.716Z,1007.01
2022-08-17T02:04:20.934Z,1006.95
2022-08-17T02:14:20.980Z,1006.94
2022-08-17T02:24:58.754Z,1006.94
2022-08-17T02:34:22.496Z,1007.09
2022-08-17T02:44:39.468Z,1007.34
2022-08-17T02:54:40.318Z,1007.36
2022-08-17T03:04:23.054Z,1007.25
2022-08-17T03:14:26.131Z,1007.22
2022-08-17T03:24:25.702Z,1007.24
2022-08-17T03:34:23.524Z,1007.52
2022-08-17T03:44:22.793Z,1007.59
2022-08-17T03:54:23.022Z,1007.89
2022-08-17T04:04:27.722Z,1008.05
2022-08-17T04:14:23.346Z,1008.08
2022-08-17T04:24:23.694Z,1008.23
2022-08-17T04:34:23.721Z,1008.43
2022-08-17T04:44:36.803Z,1008.54
2022-08-17T04:54:25.116Z,1008.75
2022-08-17T05:04:34.559Z,1008.59
2022-08-17T05:14:33.175Z,1008.67
2022-08-17T05:24:43.109Z,1008.98
2022-08-17T05:34:25.784Z,1009.31
2022-08-17T05:44:25.113Z,1009.22
2022-08-17T05:54:25.145Z,1009.30
2022-08-17T06:04:25.445Z,1009.30
2022-08-17T06:14:25.605Z,1009.29
2022-08-17T06:24:25.689Z,1009.21
2022-08-17T06:34:25.735Z,1009.45
2022-08-17T06:44:49.675Z,1009.51
2022-08-17T06:54:27.138Z,1009.22
2022-08-17T07:04:26.361Z,1009.16
2022-08-17T07:14:26.673Z,1009.11
2022-08-17T07:24:30.460Z,1009.29
2022-08-17T07:34:26.785Z,1009.10
2022-08-17T07:44:26.987Z,1009.07
2022-08-17T07:54:27.028Z,1009.12
2022-08-17T08:04:49.918Z,1009.03
2022-08-17T08:14:28.851Z,1008.85
2022-08-17T08:24:30.169Z,1009.01
2022-08-17T08:34:54.736Z,1008.90
2022-08-17T08:44:59.050Z,1009.07
2022-08-17T08:54:29.159Z,1009.03
2022-08-17T09:04:28.495Z,1009.37
2022-08-17T09:14:29.332Z,1009.24
2022-08-17T09:24:28.638Z,1009.24
2022-08-17T09:34:33.263Z,1009.08
2022-08-17T09:44:29.061Z,1009.04
2022-08-17T09:54:44.669Z,1009.01
2022-08-17T10:04:30.455Z,1009.01
2022-08-17T10:14:36.869Z,1008.98
2022-08-17T10:24:30.864Z,1008.80
2022-08-17T10:34:29.964Z,1008.73
2022-08-17T10:44:38.043Z,1008.84
2022-08-17T10:54:31.109Z,1008.72
2022-08-17T11:04:30.392Z,1008.75
2022-08-17T11:14:30.432Z,1008.79
2022-08-17T11:24:30.744Z,1008.84
2022-08-17T11:34:30.782Z,1009.01
2022-08-17T11:44:31.086Z,1008.95
2022-08-17T11:54:33.425Z,1008.88
2022-08-17T12:04:31.350Z,1008.78
2022-08-17T12:15:05.739Z,1008.56
2022-08-17T12:24:32.663Z,1008.55
2022-08-17T12:34:31.961Z,1008.52
2022-08-17T12:44:32.002Z,1008.51
2022-08-17T12:54:34.595Z,1008.45
2022-08-17T13:04:32.455Z,1008.25
2022-08-17T13:14:33.278Z,1008.01
2022-08-17T13:24:38.206Z,1007.92
2022-08-17T13:34:34.126Z,1007.85
2022-08-17T13:44:33.406Z,1007.83
2022-08-17T13:54:33.770Z,1007.40
2022-08-17T14:04:33.810Z,1007.52
2022-08-17T14:14:34.113Z,1007.29
2022-08-17T14:24:34.168Z,1007.27
2022-08-17T14:34:34.457Z,1007.34
2022-08-17T14:44:34.483Z,1007.19
2022-08-17T14:54:34.811Z,1007.13
2022-08-17T15:04:34.856Z,1007.05
2022-08-17T15:14:35.166Z,1007.01
2022-08-17T15:24:35.208Z,1007.11
2022-08-17T15:34:35.616Z,1007.14
2022-08-17T15:44:35.656Z,1007.03
2022-08-17T15:54:36.088Z,1007.14
2022-08-17T16:04:36.317Z,1006.93
2022-08-17T16:14:36.283Z,1006.81
2022-08-17T16:24:36.607Z,1006.54
2022-08-17T16:34:36.637Z,1006.44
2022-08-17T16:44:36.948Z,1006.29
2022-08-17T16:54:36.979Z,1006.33
2022-08-17T17:04:37.289Z,1006.28
2022-08-17T17:14:37.390Z,1006.29
2022-08-17T17:24:37.542Z,1006.38
2022-08-17T17:34:37.575Z,1006.30
2022-08-17T17:44:37.914Z,1006.20
2022-08-17T17:54:37.946Z,1006.45
2022-08-17T18:04:38.267Z,1006.36
2022-08-17T18:14:38.392Z,1006.39
2022-08-17T18:24:38.504Z,1006.48
2022-08-17T18:34:46.974Z,1006.76
2022-08-17T18:44:39.794Z,1007.06
2022-08-17T18:54:39.116Z,1007.24
2022-08-17T19:04:39.183Z,1007.09
2022-08-17T19:14:39.357Z,1007.33
2022-08-17T19:24:47.723Z,1007.73
2022-08-17T19:34:40.502Z,1008.14
2022-08-17T19:44:39.819Z,1008.36
2022-08-17T19:54:39.868Z,1008.52
2022-08-17T20:04:40.340Z,1008.56
2022-08-17T20:14:40.370Z,1008.69
2022-08-17T20:24:41.433Z,1008.91
2022-08-17T20:34:40.761Z,1009.02
2022-08-17T20:44:40.792Z,1009.02
2022-08-17T20:54:41.134Z,1009.22
2022-08-17T21:04:41.174Z,1009.53
2022-08-17T21:14:41.462Z,1009.90
2022-08-17T21:24:41.492Z,1010.17
2022-08-17T21:34:41.805Z,1010.71
2022-08-17T21:44:41.847Z,1011.13
2022-08-17T21:54:42.166Z,1011.36
2022-08-17T22:04:42.569Z,1011.66
2022-08-17T22:14:53.003Z,1011.53
2022-08-17T22:24:43.498Z,1011.55
2022-08-17T22:34:42.984Z,1011.73
2022-08-17T22:44:42.809Z,1011.68
2022-08-17T22:54:43.108Z,1011.71
2022-08-17T23:04:43.148Z,1011.64
2022-08-17T23:14:43.459Z,1011.55
2022-08-17T23:24:43.479Z,1011.53
2022-08-17T23:34:43.803Z,1011.67
2022-08-17T23:44:43.810Z,1011.57
2022-08-17T23:54:44.155Z,1011.49
